Time;durP1;ratioP1;P1;durP2;ratioP2;P2;SDS_P1;SDS_P2;PMS_P1;PMS_P2;Temp;Humidity;BMP_temperature;BMP_pressure;BME280_temperature;BME280_humidity;BME280_pressure;Samples;Min_cycle;Max_cycle;Signal;HPM_P1;HPM_P2
2023/07/11 05:18:56;;;;;;;10.60;4.72;;;;;;;;;;6187475;23;20043;-77
2023/07/11 16:09:37;;;;;;;10.07;4.18;;;;;;;;;;6151647;23;20024;-78
2023/07/11 17:21:05;;;;;;;13.48;4.78;;;;;;;;;;6180742;23;20039;-79
2023/07/11 17:23:34;;;;;;;14.80;4.50;;;;;;;;;;6179625;23;20013;-78
2023/07/11 17:58:53;;;;;;;12.23;5.05;;;;;;;;;;6060841;23;20018;-79
2023/07/11 18:04:55;;;;;;;16.30;6.05;;;;;;;;;;5946995;24;20391;-79
2023/07/11 18:10:37;;;;;;;12.93;5.38;;;;;;;;;;6031836;23;20026;-80
2023/07/11 18:13:23;;;;;;;21.10;5.35;;;;;;;;;;6037825;23;20047;-80
2023/07/11 18:16:11;;;;;;;19.95;5.55;;;;;;;;;;6088427;23;20039;-80
2023/07/11 18:18:37;;;;;;;18.77;4.88;;;;;;;;;;6118027;23;20458;-80
2023/07/11 18:21:03;;;;;;;14.73;4.82;;;;;;;;;;6118253;23;20385;-79
2023/07/11 18:23:33;;;;;;;18.83;5.13;;;;;;;;;;6119303;23;20029;-79
2023/07/11 18:26:14;;;;;;;14.93;5.30;;;;;;;;;;6094246;23;20546;-79
2023/07/11 18:28:40;;;;;;;14.05;4.82;;;;;;;;;;6117989;23;20076;-79
2023/07/11 18:31:11;;;;;;;15.00;5.95;;;;;;;;;;6094718;23;20058;-80
2023/07/11 18:33:37;;;;;;;;;;;;;;;;;;6119851;23;20105;-80
2023/07/11 18:36:03;;;;;;;14.68;5.20;;;;;;;;;;6094032;23;19979;-80
2023/07/11 18:38:29;;;;;;;12.10;5.72;;;;;;;;;;6094303;23;20471;-80
2023/07/11 18:40:55;;;;;;;23.45;7.35;;;;;;;;;;6094449;23;20045;-80
2023/07/11 18:46:00;;;;;;;20.45;6.75;;;;;;;;;;6161502;23;20132;-80
2023/07/11 18:48:26;;;;;;;15.45;4.93;;;;;;;;;;6180803;23;20009;-79
2023/07/11 18:50:52;;;;;;;17.35;6.22;;;;;;;;;;6180818;23;20013;-79
2023/07/11 18:53:26;;;;;;;16.38;7.40;;;;;;;;;;6178271;23;20020;-80
2023/07/11 18:55:52;;;;;;;21.35;5.45;;;;;;;;;;6179066;23;20013;-80
2023/07/11 18:58:21;;;;;;;20.30;5.63;;;;;;;;;;6181100;23;20067;-81
2023/07/11 19:00:48;;;;;;;18.13;6.95;;;;;;;;;;6179169;23;20010;-80
2023/07/11 19:03:16;;;;;;;16.80;6.03;;;;;;;;;;6181524;23;20372;-80
2023/07/11 19:05:45;;;;;;;23.08;6.82;;;;;;;;;;6181207;23;20009;-80
2023/07/11 19:08:18;;;;;;;22.55;6.43;;;;;;;;;;6181671;23;20445;-79
2023/07/11 19:10:45;;;;;;;21.35;6.70;;;;;;;;;;6179787;23;20013;-80
2023/07/11 19:13:11;;;;;;;17.05;6.40;;;;;;;;;;6180617;23;20015;-81
2023/07/11 19:15:39;;;;;;;30.77;6.53;;;;;;;;;;6180099;23;20013;-80
2023/07/11 19:18:06;;;;;;;20.60;6.20;;;;;;;;;;6180979;23;20005;-80
2023/07/11 19:20:33;;;;;;;21.80;6.25;;;;;;;;;;6178900;23;20032;-80
2023/07/11 19:23:05;;;;;;;31.65;7.57;;;;;;;;;;6179141;23;20019;-81
2023/07/11 19:25:32;;;;;;;24.52;6.75;;;;;;;;;;6180855;23;20032;-80
2023/07/11 19:28:19;;;;;;;27.83;8.05;;;;;;;;;;6180775;23;20020;-82
2023/07/11 19:30:46;;;;;;;28.52;8.23;;;;;;;;;;6180995;23;20013;-82
2023/07/11 19:33:13;;;;;;;29.67;6.72;;;;;;;;;;6180591;23;20016;-82
2023/07/11 19:35:39;;;;;;;25.00;6.53;;;;;;;;;;6177603;23;20020;-82
2023/07/11 19:38:17;;;;;;;24.77;6.70;;;;;;;;;;6180498;23;20071;-82
2023/07/11 19:40:43;;;;;;;30.95;6.93;;;;;;;;;;6180361;23;20009;-82
2023/07/11 19:43:09;;;;;;;34.20;7.10;;;;;;;;;;6181683;23;20014;-82
2023/07/11 19:45:36;;;;;;;27.38;7.38;;;;;;;;;;6180961;23;20109;-83
2023/07/11 19:48:03;;;;;;;23.95;6.68;;;;;;;;;;6180764;23;20556;-82
2023/07/11 19:50:31;;;;;;;27.40;6.60;;;;;;;;;;6181187;23;20013;-82
2023/07/11 19:52:57;;;;;;;45.05;8.73;;;;;;;;;;6180474;23;20017;-82
2023/07/11 19:55:23;;;;;;;33.42;8.50;;;;;;;;;;6181104;23;20417;-82
2023/07/11 19:57:49;;;;;;;34.40;7.35;;;;;;;;;;6180638;23;20012;-83
2023/07/11 20:00:24;;;;;;;29.77;7.32;;;;;;;;;;6182016;23;20067;-82
2023/07/11 20:02:50;;;;;;;31.27;7.55;;;;;;;;;;6180571;23;20440;-81
2023/07/11 20:05:17;;;;;;;30.55;7.57;;;;;;;;;;6180290;23;20100;-83
2023/07/11 20:07:43;;;;;;;32.38;7.93;;;;;;;;;;6181097;23;20100;-83
2023/07/11 20:10:12;;;;;;;28.70;7.57;;;;;;;;;;6180088;23;20045;-82
2023/07/11 20:12:41;;;;;;;38.53;8.85;;;;;;;;;;6180531;23;20649;-83
2023/07/11 20:15:09;;;;;;;37.53;7.88;;;;;;;;;;6180352;23;20537;-83
2023/07/11 20:17:35;;;;;;;31.20;8.15;;;;;;;;;;6181243;23;20016;-82
2023/07/11 20:20:02;;;;;;;31.17;7.82;;;;;;;;;;6182129;23;20011;-83
2023/07/11 20:22:28;;;;;;;28.25;7.43;;;;;;;;;;6180723;23;20106;-83
2023/07/11 20:24:54;;;;;;;40.17;7.82;;;;;;;;;;6181440;23;20009;-82
2023/07/11 20:27:20;;;;;;;43.83;8.68;;;;;;;;;;6183057;23;20013;-83
2023/07/11 20:29:49;;;;;;;42.22;8.52;;;;;;;;;;6180449;23;20017;-82
2023/07/11 20:32:16;;;;;;;33.80;7.55;;;;;;;;;;6180277;23;20079;-82
2023/07/11 20:34:46;;;;;;;33.72;8.20;;;;;;;;;;6180240;23;20431;-83
2023/07/11 20:37:13;;;;;;;42.90;8.32;;;;;;;;;;6183214;23;20005;-82
2023/07/11 20:39:39;;;;;;;38.50;7.57;;;;;;;;;;6180792;23;20438;-82
2023/07/11 20:42:05;;;;;;;39.15;9.00;;;;;;;;;;6181073;23;20009;-82
2023/07/11 20:44:31;;;;;;;47.47;8.27;;;;;;;;;;6182157;23;20017;-84
2023/07/11 20:47:33;;;;;;;38.70;7.22;;;;;;;;;;6176092;23;20444;-83
2023/07/11 20:50:12;;;;;;;35.28;7.95;;;;;;;;;;6147119;23;20105;-83
2023/07/11 20:52:40;;;;;;;44.63;8.73;;;;;;;;;;6152447;23;20017;-83
2023/07/11 20:55:06;;;;;;;45.42;7.80;;;;;;;;;;6152646;23;20010;-82
2023/07/11 20:57:38;;;;;;;40.53;8.20;;;;;;;;;;6151497;23;20429;-83
2023/07/11 21:00:21;;;;;;;35.30;7.97;;;;;;;;;;6152967;23;20012;-83
2023/07/11 21:03:36;;;;;;;46.70;7.95;;;;;;;;;;6151574;23;20338;-83
2023/07/11 21:06:31;;;;;;;51.20;8.00;;;;;;;;;;6150368;23;20060;-83
2023/07/11 21:09:02;;;;;;;43.35;8.45;;;;;;;;;;6152185;23;20020;-83
2023/07/11 21:11:29;;;;;;;37.58;8.60;;;;;;;;;;6150545;23;20096;-83
2023/07/11 21:14:03;;;;;;;52.60;8.25;;;;;;;;;;6151737;23;20041;-83
2023/07/11 21:16:35;;;;;;;39.50;8.75;;;;;;;;;;6152136;23;20456;-83
2023/07/11 21:19:31;;;;;;;40.88;7.78;;;;;;;;;;6150937;23;20013;-83
2023/07/11 21:22:39;;;;;;;41.70;8.70;;;;;;;;;;6152066;23;20033;-83
2023/07/11 21:25:30;;;;;;;39.85;8.02;;;;;;;;;;6106336;23;20024;-83
2023/07/11 21:28:06;;;;;;;41.95;8.63;;;;;;;;;;6151302;23;20056;-83
2023/07/11 21:30:57;;;;;;;;;;;;;;;;;;;;;
2023/07/11 21:33:54;;;;;;;44.78;7.72;;;;;;;;;;6152471;23;20084;-83
2023/07/11 21:36:43;;;;;;;;;;;;;;;;;;;;;
2023/07/11 21:45:37;;;;;;;;;;;;;;;;;;;;;
2023/07/11 21:51:00;;;;;;;38.38;7.93;;;;;;;;;;6122396;23;20048;-83
2023/07/11 21:53:58;;;;;;;42.08;7.90;;;;;;;;;;6120891;23;20037;-83
2023/07/11 21:56:53;;;;;;;30.13;7.25;;;;;;;;;;6121203;23;20029;-82
2023/07/11 21:59:50;;;;;;;35.88;7.82;;;;;;;;;;6119148;23;20075;-83
2023/07/11 22:02:29;;;;;;;60.85;8.10;;;;;;;;;;6060707;23;20073;-83
2023/07/11 22:05:01;;;;;;;39.10;7.03;;;;;;;;;;6061481;23;20072;-83
2023/07/11 22:07:38;;;;;;;38.60;8.25;;;;;;;;;;6061098;23;20110;-83
2023/07/11 22:10:13;;;;;;;49.33;8.35;;;;;;;;;;6060549;23;20474;-83
2023/07/11 22:13:02;;;;;;;47.45;8.38;;;;;;;;;;6060214;23;20018;-83
2023/07/11 22:15:47;;;;;;;53.45;8.82;;;;;;;;;;6060697;23;20057;-83
2023/07/11 22:18:29;;;;;;;45.58;8.70;;;;;;;;;;6060846;23;20604;-83
2023/07/11 22:21:12;;;;;;;39.08;8.10;;;;;;;;;;6059233;23;20011;-83
2023/07/11 22:23:56;;;;;;;43.80;7.88;;;;;;;;;;6060415;23;20057;-83
2023/07/11 22:29:19;;;;;;;40.90;7.72;;;;;;;;;;6120233;23;20025;-83
2023/07/11 22:31:55;;;;;;;;;;;;;;;;;;;;;
2023/07/11 22:34:39;;;;;;;31.13;7.65;;;;;;;;;;6122907;23;20100;-83
2023/07/11 22:37:12;;;;;;;50.78;8.07;;;;;;;;;;6122888;23;20006;-83
2023/07/11 22:39:43;;;;;;;41.17;9.50;;;;;;;;;;6119267;23;20014;-83
2023/07/11 22:42:12;;;;;;;;;;;;;;;;;;6120087;23;20028;-83
2023/07/11 22:44:42;;;;;;;29.67;6.65;;;;;;;;;;6119606;23;19908;-83
2023/07/11 22:47:19;;;;;;;37.65;7.53;;;;;;;;;;6118794;23;20052;-83
2023/07/11 22:50:06;;;;;;;35.30;7.97;;;;;;;;;;6137276;23;20120;-83
2023/07/11 22:52:39;;;;;;;40.75;7.28;;;;;;;;;;6146904;23;20084;-82
2023/07/11 22:55:16;;;;;;;28.95;6.05;;;;;;;;;;6148480;23;20017;-82
2023/07/11 22:57:42;;;;;;;40.20;8.43;;;;;;;;;;6147332;23;20002;-82
2023/07/11 23:00:28;;;;;;;36.63;6.35;;;;;;;;;;6147934;23;20109;-82
2023/07/11 23:03:13;;;;;;;33.60;7.53;;;;;;;;;;6148671;23;20041;-82
2023/07/11 23:05:49;;;;;;;29.98;7.60;;;;;;;;;;6149955;23;20028;-82
2023/07/11 23:08:25;;;;;;;29.98;7.10;;;;;;;;;;6120201;23;20108;-83
2023/07/11 23:11:18;;;;;;;33.80;6.60;;;;;;;;;;6120644;23;20037;-82
2023/07/11 23:17:24;;;;;;;38.30;6.85;;;;;;;;;;6088501;23;20113;-82
2023/07/11 23:19:52;;;;;;;33.88;7.22;;;;;;;;;;6121286;23;20069;-82
2023/07/11 23:22:21;;;;;;;32.10;6.65;;;;;;;;;;6095431;23;20084;-82
2023/07/11 23:25:06;;;;;;;37.00;8.35;;;;;;;;;;6096301;23;20021;-82
2023/07/11 23:27:38;;;;;;;39.05;8.45;;;;;;;;;;6121051;23;20061;-82
2023/07/11 23:30:13;;;;;;;36.40;7.97;;;;;;;;;;6096480;23;20022;-82
2023/07/11 23:32:56;;;;;;;28.08;7.85;;;;;;;;;;6109012;23;20566;-82
2023/07/11 23:35:34;;;;;;;50.47;8.05;;;;;;;;;;6150163;23;20462;-82
2023/07/11 23:38:14;;;;;;;37.20;7.53;;;;;;;;;;6148876;23;20017;-82
2023/07/11 23:40:44;;;;;;;42.55;8.60;;;;;;;;;;6150301;23;20413;-82
2023/07/11 23:43:35;;;;;;;33.38;7.78;;;;;;;;;;6148929;23;20836;-82
2023/07/11 23:46:02;;;;;;;49.50;7.88;;;;;;;;;;6110837;23;20099;-81
2023/07/11 23:48:42;;;;;;;42.25;8.18;;;;;;;;;;6149276;23;20045;-82
2023/07/11 23:51:18;;;;;;;38.38;7.57;;;;;;;;;;6149890;23;20017;-82
2023/07/11 23:53:47;;;;;;;31.38;6.95;;;;;;;;;;6149515;23;20009;-82
2023/07/11 23:56:24;;;;;;;30.77;7.30;;;;;;;;;;6150281;23;20026;-82
2023/07/11 23:58:59;;;;;;;33.25;8.13;;;;;;;;;;6149644;23;20037;-82
